sensor_id;sensor_type;location;lat;lon;timestamp;P1;durP1;ratioP1;P2;durP2;ratioP2
21095;SDS011;10706;49.036;12.112;2023-08-31T00:00:48;11.20;;;5.13;;
21095;SDS011;10706;49.036;12.112;2023-08-31T00:03:16;13.30;;;5.68;;
21095;SDS011;10706;49.036;12.112;2023-08-31T00:05:42;12.50;;;5.78;;
21095;SDS011;10706;49.036;12.112;2023-08-31T00:08:09;13.23;;;5.50;;
21095;SDS011;10706;49.036;12.112;2023-08-31T00:10:36;10.55;;;5.15;;
21095;SDS011;10706;49.036;12.112;2023-08-31T00:13:02;13.70;;;6.38;;
21095;SDS011;10706;49.036;12.112;2023-08-31T00:15:29;12.75;;;5.57;;
21095;SDS011;10706;49.036;12.112;2023-08-31T00:17:57;10.98;;;4.82;;
21095;SDS011;10706;49.036;12.112;2023-08-31T00:20:24;10.80;;;5.22;;
21095;SDS011;10706;49.036;12.112;2023-08-31T00:22:50;10.13;;;4.50;;
21095;SDS011;10706;49.036;12.112;2023-08-31T00:25:15;8.88;;;3.80;;
21095;SDS011;10706;49.036;12.112;2023-08-31T00:27:42;8.30;;;3.90;;
21095;SDS011;10706;49.036;12.112;2023-08-31T00:30:08;11.68;;;4.10;;
21095;SDS011;10706;49.036;12.112;2023-08-31T00:32:36;12.25;;;4.03;;
21095;SDS011;10706;49.036;12.112;2023-08-31T00:35:04;7.53;;;3.72;;
21095;SDS011;10706;49.036;12.112;2023-08-31T00:37:31;7.78;;;3.10;;
21095;SDS011;10706;49.036;12.112;2023-08-31T00:39:56;7.35;;;3.38;;
21095;SDS011;10706;49.036;12.112;2023-08-31T00:42:22;9.40;;;3.30;;
21095;SDS011;10706;49.036;12.112;2023-08-31T00:44:49;7.05;;;3.00;;
21095;SDS011;10706;49.036;12.112;2023-08-31T00:47:15;6.53;;;3.10;;
21095;SDS011;10706;49.036;12.112;2023-08-31T00:49:41;6.10;;;3.05;;
21095;SDS011;10706;49.036;12.112;2023-08-31T00:52:07;7.38;;;3.17;;
21095;SDS011;10706;49.036;12.112;2023-08-31T00:54:34;6.85;;;3.55;;
21095;SDS011;10706;49.036;12.112;2023-08-31T00:57:00;7.80;;;3.95;;
21095;SDS011;10706;49.036;12.112;2023-08-31T00:59:26;10.43;;;3.35;;
21095;SDS011;10706;49.036;12.112;2023-08-31T01:07:48;9.05;;;3.22;;
21095;SDS011;10706;49.036;12.112;2023-08-31T01:14:07;5.82;;;2.70;;
21095;SDS011;10706;49.036;12.112;2023-08-31T01:16:40;5.88;;;2.70;;
21095;SDS011;10706;49.036;12.112;2023-08-31T01:19:13;6.05;;;2.95;;
21095;SDS011;10706;49.036;12.112;2023-08-31T01:22:07;5.35;;;2.70;;
21095;SDS011;10706;49.036;12.112;2023-08-31T01:24:39;5.50;;;2.78;;
21095;SDS011;10706;49.036;12.112;2023-08-31T01:27:06;8.38;;;2.75;;
21095;SDS011;10706;49.036;12.112;2023-08-31T01:29:32;5.57;;;2.92;;
21095;SDS011;10706;49.036;12.112;2023-08-31T01:31:58;10.20;;;3.50;;
21095;SDS011;10706;49.036;12.112;2023-08-31T01:34:24;5.60;;;2.95;;
21095;SDS011;10706;49.036;12.112;2023-08-31T01:36:52;7.63;;;3.47;;
21095;SDS011;10706;49.036;12.112;2023-08-31T01:39:46;6.38;;;3.33;;
21095;SDS011;10706;49.036;12.112;2023-08-31T01:42:17;9.73;;;3.95;;
21095;SDS011;10706;49.036;12.112;2023-08-31T01:44:43;9.98;;;3.42;;
21095;SDS011;10706;49.036;12.112;2023-08-31T01:47:13;7.40;;;3.33;;
21095;SDS011;10706;49.036;12.112;2023-08-31T01:49:41;7.10;;;3.65;;
21095;SDS011;10706;49.036;12.112;2023-08-31T01:52:08;8.10;;;3.45;;
21095;SDS011;10706;49.036;12.112;2023-08-31T01:54:34;8.52;;;3.13;;
21095;SDS011;10706;49.036;12.112;2023-08-31T01:57:02;6.20;;;2.78;;
21095;SDS011;10706;49.036;12.112;2023-08-31T01:59:29;6.53;;;3.17;;
21095;SDS011;10706;49.036;12.112;2023-08-31T02:01:54;5.35;;;2.60;;
21095;SDS011;10706;49.036;12.112;2023-08-31T02:04:20;8.43;;;3.33;;
21095;SDS011;10706;49.036;12.112;2023-08-31T02:06:46;5.50;;;2.95;;
21095;SDS011;10706;49.036;12.112;2023-08-31T02:09:13;7.93;;;3.00;;
21095;SDS011;10706;49.036;12.112;2023-08-31T02:11:39;6.90;;;2.88;;
21095;SDS011;10706;49.036;12.112;2023-08-31T02:14:05;11.85;;;2.95;;
21095;SDS011;10706;49.036;12.112;2023-08-31T02:16:32;6.90;;;2.75;;
21095;SDS011;10706;49.036;12.112;2023-08-31T02:18:59;9.07;;;2.67;;
21095;SDS011;10706;49.036;12.112;2023-08-31T02:21:25;6.15;;;2.78;;
21095;SDS011;10706;49.036;12.112;2023-08-31T02:23:50;7.10;;;3.13;;
21095;SDS011;10706;49.036;12.112;2023-08-31T02:26:16;10.10;;;3.22;;
21095;SDS011;10706;49.036;12.112;2023-08-31T02:28:42;9.57;;;3.22;;
21095;SDS011;10706;49.036;12.112;2023-08-31T02:31:09;8.13;;;3.40;;
21095;SDS011;10706;49.036;12.112;2023-08-31T02:33:37;8.85;;;3.42;;
21095;SDS011;10706;49.036;12.112;2023-08-31T02:36:02;9.90;;;3.53;;
21095;SDS011;10706;49.036;12.112;2023-08-31T02:38:28;9.60;;;3.65;;
21095;SDS011;10706;49.036;12.112;2023-08-31T02:40:54;7.00;;;3.53;;
21095;SDS011;10706;49.036;12.112;2023-08-31T02:43:20;9.38;;;3.38;;
21095;SDS011;10706;49.036;12.112;2023-08-31T02:45:45;8.00;;;3.53;;
21095;SDS011;10706;49.036;12.112;2023-08-31T02:48:11;9.38;;;4.30;;
21095;SDS011;10706;49.036;12.112;2023-08-31T02:50:38;9.38;;;3.85;;
21095;SDS011;10706;49.036;12.112;2023-08-31T02:53:04;8.82;;;3.88;;
21095;SDS011;10706;49.036;12.112;2023-08-31T02:55:33;12.82;;;4.22;;
21095;SDS011;10706;49.036;12.112;2023-08-31T02:57:59;8.45;;;3.97;;
21095;SDS011;10706;49.036;12.112;2023-08-31T03:00:25;9.15;;;3.88;;
21095;SDS011;10706;49.036;12.112;2023-08-31T03:02:51;11.13;;;4.28;;
21095;SDS011;10706;49.036;12.112;2023-08-31T03:05:17;8.63;;;3.90;;
21095;SDS011;10706;49.036;12.112;2023-08-31T03:07:43;8.63;;;3.80;;
21095;SDS011;10706;49.036;12.112;2023-08-31T03:10:09;10.57;;;4.30;;
21095;SDS011;10706;49.036;12.112;2023-08-31T03:12:35;7.75;;;3.97;;
21095;SDS011;10706;49.036;12.112;2023-08-31T03:15:01;8.95;;;4.10;;
21095;SDS011;10706;49.036;12.112;2023-08-31T03:17:27;12.48;;;4.07;;
21095;SDS011;10706;49.036;12.112;2023-08-31T03:19:53;9.75;;;4.50;;
21095;SDS011;10706;49.036;12.112;2023-08-31T03:22:19;10.20;;;4.50;;
21095;SDS011;10706;49.036;12.112;2023-08-31T03:24:44;10.45;;;4.25;;
21095;SDS011;10706;49.036;12.112;2023-08-31T03:27:10;13.13;;;5.28;;
21095;SDS011;10706;49.036;12.112;2023-08-31T03:29:36;10.43;;;4.70;;
21095;SDS011;10706;49.036;12.112;2023-08-31T03:32:02;13.07;;;5.68;;
21095;SDS011;10706;49.036;12.112;2023-08-31T03:34:28;12.02;;;5.20;;
21095;SDS011;10706;49.036;12.112;2023-08-31T03:36:55;14.48;;;6.10;;
21095;SDS011;10706;49.036;12.112;2023-08-31T03:39:22;11.32;;;5.72;;
21095;SDS011;10706;49.036;12.112;2023-08-31T03:41:49;12.98;;;5.97;;
21095;SDS011;10706;49.036;12.112;2023-08-31T03:44:15;13.30;;;6.57;;
21095;SDS011;10706;49.036;12.112;2023-08-31T03:46:41;17.02;;;6.50;;
21095;SDS011;10706;49.036;12.112;2023-08-31T03:49:07;12.93;;;6.10;;
21095;SDS011;10706;49.036;12.112;2023-08-31T03:51:33;12.45;;;5.93;;
21095;SDS011;10706;49.036;12.112;2023-08-31T03:53:59;13.52;;;5.75;;
21095;SDS011;10706;49.036;12.112;2023-08-31T03:56:24;12.77;;;6.22;;
21095;SDS011;10706;49.036;12.112;2023-08-31T03:58:50;12.18;;;5.78;;
21095;SDS011;10706;49.036;12.112;2023-08-31T04:01:16;13.98;;;6.00;;
21095;SDS011;10706;49.036;12.112;2023-08-31T04:03:42;12.05;;;5.07;;
21095;SDS011;10706;49.036;12.112;2023-08-31T04:06:08;12.23;;;5.82;;
21095;SDS011;10706;49.036;12.112;2023-08-31T04:08:34;11.25;;;5.25;;
21095;SDS011;10706;49.036;12.112;2023-08-31T04:11:00;13.80;;;6.55;;
21095;SDS011;10706;49.036;12.112;2023-08-31T04:13:25;11.55;;;5.68;;
21095;SDS011;10706;49.036;12.112;2023-08-31T04:15:52;15.68;;;6.50;;
21095;SDS011;10706;49.036;12.112;2023-08-31T04:18:18;13.65;;;7.07;;
21095;SDS011;10706;49.036;12.112;2023-08-31T04:20:51;14.38;;;6.43;;
21095;SDS011;10706;49.036;12.112;2023-08-31T04:23:19;12.52;;;5.35;;
21095;SDS011;10706;49.036;12.112;2023-08-31T04:25:46;13.60;;;6.10;;
21095;SDS011;10706;49.036;12.112;2023-08-31T04:28:12;13.02;;;6.07;;
21095;SDS011;10706;49.036;12.112;2023-08-31T04:30:39;12.73;;;6.00;;
21095;SDS011;10706;49.036;12.112;2023-08-31T04:33:06;10.73;;;5.30;;
21095;SDS011;10706;49.036;12.112;2023-08-31T04:35:32;13.60;;;7.05;;
21095;SDS011;10706;49.036;12.112;2023-08-31T04:37:58;14.25;;;6.95;;
21095;SDS011;10706;49.036;12.112;2023-08-31T04:40:24;13.38;;;6.80;;
21095;SDS011;10706;49.036;12.112;2023-08-31T04:42:52;15.40;;;6.25;;
21095;SDS011;10706;49.036;12.112;2023-08-31T04:45:17;11.73;;;5.88;;
21095;SDS011;10706;49.036;12.112;2023-08-31T04:47:43;14.40;;;6.30;;
21095;SDS011;10706;49.036;12.112;2023-08-31T04:50:09;13.90;;;6.18;;
21095;SDS011;10706;49.036;12.112;2023-08-31T04:52:35;12.70;;;6.05;;
21095;SDS011;10706;49.036;12.112;2023-08-31T04:55:01;17.63;;;7.40;;
21095;SDS011;10706;49.036;12.112;2023-08-31T04:57:28;13.20;;;6.18;;
21095;SDS011;10706;49.036;12.112;2023-08-31T04:59:54;12.45;;;6.53;;
21095;SDS011;10706;49.036;12.112;2023-08-31T05:02:20;13.32;;;6.50;;
21095;SDS011;10706;49.036;12.112;2023-08-31T05:04:46;13.18;;;6.32;;
21095;SDS011;10706;49.036;12.112;2023-08-31T05:07:11;17.05;;;6.63;;
21095;SDS011;10706;49.036;12.112;2023-08-31T05:09:37;15.80;;;7.28;;
21095;SDS011;10706;49.036;12.112;2023-08-31T05:12:03;15.23;;;6.68;;
21095;SDS011;10706;49.036;12.112;2023-08-31T05:14:29;14.70;;;7.20;;
21095;SDS011;10706;49.036;12.112;2023-08-31T05:16:55;16.75;;;6.63;;
21095;SDS011;10706;49.036;12.112;2023-08-31T05:19:21;17.77;;;6.50;;
21095;SDS011;10706;49.036;12.112;2023-08-31T05:21:47;14.27;;;6.45;;
21095;SDS011;10706;49.036;12.112;2023-08-31T05:24:12;14.80;;;6.38;;
21095;SDS011;10706;49.036;12.112;2023-08-31T05:26:39;18.08;;;6.88;;
21095;SDS011;10706;49.036;12.112;2023-08-31T05:29:05;14.88;;;7.55;;
21095;SDS011;10706;49.036;12.112;2023-08-31T05:31:31;17.73;;;7.32;;
21095;SDS011;10706;49.036;12.112;2023-08-31T05:33:56;15.98;;;6.47;;
21095;SDS011;10706;49.036;12.112;2023-08-31T05:36:23;12.40;;;6.18;;
21095;SDS011;10706;49.036;12.112;2023-08-31T05:38:50;14.32;;;6.53;;
21095;SDS011;10706;49.036;12.112;2023-08-31T05:41:17;11.18;;;5.82;;
21095;SDS011;10706;49.036;12.112;2023-08-31T05:43:42;16.48;;;6.05;;
21095;SDS011;10706;49.036;12.112;2023-08-31T05:46:08;10.82;;;5.05;;
21095;SDS011;10706;49.036;12.112;2023-08-31T05:48:34;16.58;;;4.78;;
21095;SDS011;10706;49.036;12.112;2023-08-31T05:51:01;13.20;;;4.95;;
21095;SDS011;10706;49.036;12.112;2023-08-31T05:53:28;12.85;;;4.82;;
21095;SDS011;10706;49.036;12.112;2023-08-31T05:55:55;13.00;;;5.18;;
21095;SDS011;10706;49.036;12.112;2023-08-31T05:58:29;14.27;;;5.20;;
21095;SDS011;10706;49.036;12.112;2023-08-31T06:01:03;13.38;;;5.18;;
21095;SDS011;10706;49.036;12.112;2023-08-31T06:03:30;11.07;;;3.95;;
21095;SDS011;10706;49.036;12.112;2023-08-31T06:05:57;9.40;;;3.85;;
21095;SDS011;10706;49.036;12.112;2023-08-31T06:08:24;8.65;;;3.30;;
21095;SDS011;10706;49.036;12.112;2023-08-31T06:10:50;8.32;;;3.00;;
21095;SDS011;10706;49.036;12.112;2023-08-31T06:13:16;5.80;;;2.75;;
21095;SDS011;10706;49.036;12.112;2023-08-31T06:15:42;11.30;;;3.50;;
21095;SDS011;10706;49.036;12.112;2023-08-31T06:18:09;10.45;;;3.22;;
21095;SDS011;10706;49.036;12.112;2023-08-31T06:20:35;7.93;;;3.40;;
21095;SDS011;10706;49.036;12.112;2023-08-31T06:23:01;7.43;;;3.30;;
21095;SDS011;10706;49.036;12.112;2023-08-31T06:25:27;9.40;;;3.25;;
21095;SDS011;10706;49.036;12.112;2023-08-31T06:27:53;9.57;;;3.30;;
21095;SDS011;10706;49.036;12.112;2023-08-31T06:30:19;7.25;;;3.08;;
21095;SDS011;10706;49.036;12.112;2023-08-31T06:32:46;7.38;;;2.83;;
21095;SDS011;10706;49.036;12.112;2023-08-31T06:35:13;8.35;;;3.28;;
21095;SDS011;10706;49.036;12.112;2023-08-31T06:37:40;9.43;;;3.45;;
21095;SDS011;10706;49.036;12.112;2023-08-31T06:40:07;10.48;;;3.30;;
21095;SDS011;10706;49.036;12.112;2023-08-31T06:42:37;9.75;;;3.38;;
21095;SDS011;10706;49.036;12.112;2023-08-31T06:45:04;5.78;;;2.83;;
21095;SDS011;10706;49.036;12.112;2023-08-31T06:47:32;12.80;;;3.38;;
21095;SDS011;10706;49.036;12.112;2023-08-31T06:49:58;8.18;;;2.90;;
21095;SDS011;10706;49.036;12.112;2023-08-31T06:52:25;9.02;;;2.92;;
21095;SDS011;10706;49.036;12.112;2023-08-31T06:54:52;13.13;;;3.63;;
21095;SDS011;10706;49.036;12.112;2023-08-31T06:57:22;8.50;;;3.38;;
21095;SDS011;10706;49.036;12.112;2023-08-31T06:59:51;11.77;;;3.22;;
21095;SDS011;10706;49.036;12.112;2023-08-31T07:02:18;11.23;;;3.17;;
21095;SDS011;10706;49.036;12.112;2023-08-31T07:04:45;11.10;;;3.10;;
21095;SDS011;10706;49.036;12.112;2023-08-31T07:07:11;12.05;;;3.80;;
21095;SDS011;10706;49.036;12.112;2023-08-31T07:09:38;9.65;;;3.50;;
21095;SDS011;10706;49.036;12.112;2023-08-31T07:12:07;13.48;;;3.42;;
21095;SDS011;10706;49.036;12.112;2023-08-31T07:14:32;8.75;;;3.35;;
21095;SDS011;10706;49.036;12.112;2023-08-31T07:16:59;9.05;;;3.20;;
21095;SDS011;10706;49.036;12.112;2023-08-31T07:19:24;7.35;;;3.00;;
21095;SDS011;10706;49.036;12.112;2023-08-31T07:21:51;9.70;;;3.42;;
21095;SDS011;10706;49.036;12.112;2023-08-31T07:24:19;8.52;;;3.00;;
21095;SDS011;10706;49.036;12.112;2023-08-31T07:26:46;8.45;;;3.20;;
21095;SDS011;10706;49.036;12.112;2023-08-31T07:29:12;7.80;;;3.08;;
21095;SDS011;10706;49.036;12.112;2023-08-31T07:31:38;12.70;;;3.50;;
21095;SDS011;10706;49.036;12.112;2023-08-31T07:34:04;10.82;;;3.47;;
21095;SDS011;10706;49.036;12.112;2023-08-31T07:36:30;7.90;;;3.00;;
21095;SDS011;10706;49.036;12.112;2023-08-31T07:38:56;6.65;;;2.90;;
21095;SDS011;10706;49.036;12.112;2023-08-31T07:41:21;13.07;;;3.45;;
21095;SDS011;10706;49.036;12.112;2023-08-31T07:43:47;11.93;;;3.22;;
21095;SDS011;10706;49.036;12.112;2023-08-31T07:46:14;15.63;;;3.67;;
21095;SDS011;10706;49.036;12.112;2023-08-31T07:48:41;8.05;;;2.78;;
21095;SDS011;10706;49.036;12.112;2023-08-31T07:51:07;9.85;;;3.05;;
21095;SDS011;10706;49.036;12.112;2023-08-31T07:53:33;9.95;;;2.90;;
21095;SDS011;10706;49.036;12.112;2023-08-31T07:55:59;6.80;;;2.83;;
21095;SDS011;10706;49.036;12.112;2023-08-31T07:58:24;8.48;;;2.75;;
21095;SDS011;10706;49.036;12.112;2023-08-31T08:00:54;7.30;;;2.50;;
21095;SDS011;10706;49.036;12.112;2023-08-31T08:03:23;11.77;;;3.17;;
21095;SDS011;10706;49.036;12.112;2023-08-31T08:05:49;13.57;;;2.65;;
21095;SDS011;10706;49.036;12.112;2023-08-31T08:08:14;9.15;;;2.58;;
21095;SDS011;10706;49.036;12.112;2023-08-31T08:10:40;8.40;;;2.83;;
21095;SDS011;10706;49.036;12.112;2023-08-31T08:13:07;7.70;;;2.75;;
21095;SDS011;10706;49.036;12.112;2023-08-31T08:15:34;11.18;;;2.47;;
21095;SDS011;10706;49.036;12.112;2023-08-31T08:18:00;8.57;;;2.50;;
21095;SDS011;10706;49.036;12.112;2023-08-31T08:20:26;3.95;;;2.20;;
21095;SDS011;10706;49.036;12.112;2023-08-31T08:22:56;6.40;;;1.90;;
21095;SDS011;10706;49.036;12.112;2023-08-31T08:25:22;9.45;;;2.60;;
21095;SDS011;10706;49.036;12.112;2023-08-31T08:27:48;5.20;;;2.20;;
21095;SDS011;10706;49.036;12.112;2023-08-31T08:30:15;8.07;;;2.58;;
21095;SDS011;10706;49.036;12.112;2023-08-31T08:32:41;7.50;;;2.13;;
21095;SDS011;10706;49.036;12.112;2023-08-31T08:35:08;8.25;;;2.30;;
21095;SDS011;10706;49.036;12.112;2023-08-31T08:37:34;5.63;;;2.13;;
21095;SDS011;10706;49.036;12.112;2023-08-31T08:40:00;7.85;;;2.50;;
21095;SDS011;10706;49.036;12.112;2023-08-31T08:42:29;6.60;;;2.40;;
21095;SDS011;10706;49.036;12.112;2023-08-31T08:45:00;6.65;;;2.10;;
21095;SDS011;10706;49.036;12.112;2023-08-31T08:47:27;8.23;;;1.95;;
21095;SDS011;10706;49.036;12.112;2023-08-31T08:49:54;7.82;;;2.17;;
21095;SDS011;10706;49.036;12.112;2023-08-31T08:52:22;7.70;;;2.38;;
21095;SDS011;10706;49.036;12.112;2023-08-31T08:54:49;11.40;;;1.88;;
21095;SDS011;10706;49.036;12.112;2023-08-31T08:57:15;4.80;;;1.63;;
21095;SDS011;10706;49.036;12.112;2023-08-31T08:59:41;8.20;;;2.17;;
21095;SDS011;10706;49.036;12.112;2023-08-31T09:02:08;7.63;;;1.77;;
21095;SDS011;10706;49.036;12.112;2023-08-31T09:04:36;7.68;;;1.70;;
21095;SDS011;10706;49.036;12.112;2023-08-31T09:07:02;6.55;;;1.90;;
21095;SDS011;10706;49.036;12.112;2023-08-31T09:09:28;8.23;;;2.00;;
21095;SDS011;10706;49.036;12.112;2023-08-31T09:11:54;5.78;;;1.63;;
21095;SDS011;10706;49.036;12.112;2023-08-31T09:14:23;8.20;;;1.70;;
21095;SDS011;10706;49.036;12.112;2023-08-31T09:16:49;6.15;;;1.80;;
21095;SDS011;10706;49.036;12.112;2023-08-31T09:19:23;8.05;;;1.90;;
21095;SDS011;10706;49.036;12.112;2023-08-31T09:21:52;6.13;;;1.98;;
21095;SDS011;10706;49.036;12.112;2023-08-31T09:24:22;8.27;;;1.40;;
21095;SDS011;10706;49.036;12.112;2023-08-31T09:26:58;5.20;;;2.00;;
21095;SDS011;10706;49.036;12.112;2023-08-31T09:29:24;7.05;;;1.73;;
21095;SDS011;10706;49.036;12.112;2023-08-31T09:31:50;5.72;;;1.92;;
21095;SDS011;10706;49.036;12.112;2023-08-31T09:34:16;4.60;;;1.77;;
21095;SDS011;10706;49.036;12.112;2023-08-31T09:36:43;4.97;;;1.55;;
21095;SDS011;10706;49.036;12.112;2023-08-31T09:39:09;6.65;;;1.80;;
21095;SDS011;10706;49.036;12.112;2023-08-31T09:41:36;7.00;;;1.63;;
21095;SDS011;10706;49.036;12.112;2023-08-31T09:44:20;7.47;;;1.98;;
21095;SDS011;10706;49.036;12.112;2023-08-31T09:46:47;4.35;;;1.42;;
21095;SDS011;10706;49.036;12.112;2023-08-31T09:49:13;5.53;;;1.88;;
21095;SDS011;10706;49.036;12.112;2023-08-31T09:51:43;6.90;;;1.50;;
21095;SDS011;10706;49.036;12.112;2023-08-31T09:54:15;5.38;;;1.95;;
21095;SDS011;10706;49.036;12.112;2023-08-31T09:56:44;6.15;;;1.83;;
21095;SDS011;10706;49.036;12.112;2023-08-31T09:59:12;8.02;;;1.65;;
21095;SDS011;10706;49.036;12.112;2023-08-31T10:01:41;7.65;;;1.70;;
21095;SDS011;10706;49.036;12.112;2023-08-31T10:04:11;3.55;;;1.70;;
21095;SDS011;10706;49.036;12.112;2023-08-31T10:06:41;7.00;;;1.85;;
21095;SDS011;10706;49.036;12.112;2023-08-31T10:09:08;7.05;;;2.08;;
21095;SDS011;10706;49.036;12.112;2023-08-31T10:11:35;5.00;;;1.65;;
21095;SDS011;10706;49.036;12.112;2023-08-31T10:14:02;5.00;;;1.60;;
21095;SDS011;10706;49.036;12.112;2023-08-31T10:16:29;6.00;;;2.20;;
21095;SDS011;10706;49.036;12.112;2023-08-31T10:18:55;4.93;;;1.70;;
21095;SDS011;10706;49.036;12.112;2023-08-31T10:21:22;7.53;;;2.10;;
21095;SDS011;10706;49.036;12.112;2023-08-31T10:23:48;4.90;;;1.70;;
21095;SDS011;10706;49.036;12.112;2023-08-31T10:26:30;6.88;;;1.60;;
21095;SDS011;10706;49.036;12.112;2023-08-31T10:28:57;6.03;;;1.83;;
21095;SDS011;10706;49.036;12.112;2023-08-31T10:31:28;6.18;;;1.90;;
21095;SDS011;10706;49.036;12.112;2023-08-31T10:33:56;7.22;;;1.80;;
21095;SDS011;10706;49.036;12.112;2023-08-31T10:36:34;7.63;;;1.85;;
21095;SDS011;10706;49.036;12.112;2023-08-31T10:39:16;4.45;;;1.63;;
21095;SDS011;10706;49.036;12.112;2023-08-31T10:41:57;4.75;;;1.65;;
21095;SDS011;10706;49.036;12.112;2023-08-31T10:44:26;7.05;;;1.98;;
21095;SDS011;10706;49.036;12.112;2023-08-31T10:46:55;9.38;;;2.03;;
21095;SDS011;10706;49.036;12.112;2023-08-31T10:49:24;8.52;;;1.98;;
21095;SDS011;10706;49.036;12.112;2023-08-31T10:51:57;6.53;;;1.60;;
21095;SDS011;10706;49.036;12.112;2023-08-31T10:54:45;7.68;;;1.73;;
21095;SDS011;10706;49.036;12.112;2023-08-31T10:57:12;6.18;;;1.83;;
21095;SDS011;10706;49.036;12.112;2023-08-31T10:59:44;4.32;;;1.60;;
21095;SDS011;10706;49.036;12.112;2023-08-31T11:05:12;5.03;;;1.77;;
21095;SDS011;10706;49.036;12.112;2023-08-31T11:07:40;7.72;;;2.10;;
21095;SDS011;10706;49.036;12.112;2023-08-31T11:12:43;2.47;;;1.20;;
21095;SDS011;10706;49.036;12.112;2023-08-31T11:15:25;5.50;;;1.73;;
21095;SDS011;10706;49.036;12.112;2023-08-31T11:17:53;5.57;;;1.95;;
21095;SDS011;10706;49.036;12.112;2023-08-31T11:20:20;6.13;;;1.50;;
21095;SDS011;10706;49.036;12.112;2023-08-31T11:22:49;5.07;;;1.65;;
21095;SDS011;10706;49.036;12.112;2023-08-31T11:25:18;7.60;;;1.90;;
21095;SDS011;10706;49.036;12.112;2023-08-31T11:27:58;7.68;;;2.00;;
21095;SDS011;10706;49.036;12.112;2023-08-31T11:30:30;6.20;;;1.60;;
21095;SDS011;10706;49.036;12.112;2023-08-31T11:33:01;5.28;;;1.88;;
21095;SDS011;10706;49.036;12.112;2023-08-31T11:35:35;9.80;;;1.67;;
21095;SDS011;10706;49.036;12.112;2023-08-31T11:38:02;6.43;;;2.10;;
21095;SDS011;10706;49.036;12.112;2023-08-31T11:40:29;7.00;;;1.63;;
21095;SDS011;10706;49.036;12.112;2023-08-31T11:42:56;6.07;;;1.50;;
21095;SDS011;10706;49.036;12.112;2023-08-31T11:45:27;7.18;;;1.80;;
21095;SDS011;10706;49.036;12.112;2023-08-31T11:47:53;6.63;;;1.88;;
21095;SDS011;10706;49.036;12.112;2023-08-31T11:50:20;5.75;;;1.75;;
21095;SDS011;10706;49.036;12.112;2023-08-31T11:52:47;4.28;;;1.40;;
21095;SDS011;10706;49.036;12.112;2023-08-31T11:55:14;5.07;;;1.73;;
21095;SDS011;10706;49.036;12.112;2023-08-31T11:57:52;7.00;;;1.85;;
21095;SDS011;10706;49.036;12.112;2023-08-31T12:00:19;6.57;;;2.08;;
21095;SDS011;10706;49.036;12.112;2023-08-31T12:03:00;4.88;;;1.55;;
21095;SDS011;10706;49.036;12.112;2023-08-31T12:05:29;11.80;;;1.70;;
21095;SDS011;10706;49.036;12.112;2023-08-31T12:08:23;4.47;;;1.42;;
21095;SDS011;10706;49.036;12.112;2023-08-31T12:10:51;7.28;;;1.60;;
21095;SDS011;10706;49.036;12.112;2023-08-31T12:13:16;4.97;;;1.60;;
21095;SDS011;10706;49.036;12.112;2023-08-31T12:15:42;6.63;;;1.80;;
21095;SDS011;10706;49.036;12.112;2023-08-31T12:18:12;5.63;;;1.42;;
21095;SDS011;10706;49.036;12.112;2023-08-31T12:20:45;6.43;;;1.60;;
21095;SDS011;10706;49.036;12.112;2023-08-31T12:23:18;4.50;;;1.70;;
21095;SDS011;10706;49.036;12.112;2023-08-31T12:25:47;10.50;;;2.50;;
21095;SDS011;10706;49.036;12.112;2023-08-31T12:28:14;3.00;;;1.50;;
21095;SDS011;10706;49.036;12.112;2023-08-31T12:30:42;5.70;;;1.50;;
21095;SDS011;10706;49.036;12.112;2023-08-31T12:33:11;7.70;;;1.77;;
21095;SDS011;10706;49.036;12.112;2023-08-31T12:35:36;8.10;;;1.73;;
21095;SDS011;10706;49.036;12.112;2023-08-31T12:38:03;4.75;;;1.63;;
21095;SDS011;10706;49.036;12.112;2023-08-31T12:40:29;5.45;;;1.50;;
21095;SDS011;10706;49.036;12.112;2023-08-31T12:42:55;7.68;;;2.17;;
21095;SDS011;10706;49.036;12.112;2023-08-31T12:45:20;5.68;;;1.70;;
21095;SDS011;10706;49.036;12.112;2023-08-31T12:47:46;4.70;;;1.48;;
21095;SDS011;10706;49.036;12.112;2023-08-31T12:50:12;4.85;;;1.58;;
21095;SDS011;10706;49.036;12.112;2023-08-31T12:52:38;5.10;;;1.60;;
21095;SDS011;10706;49.036;12.112;2023-08-31T12:55:09;6.78;;;1.63;;
21095;SDS011;10706;49.036;12.112;2023-08-31T12:57:35;11.63;;;1.98;;
21095;SDS011;10706;49.036;12.112;2023-08-31T13:00:01;7.75;;;1.83;;
21095;SDS011;10706;49.036;12.112;2023-08-31T13:02:30;6.90;;;1.90;;
21095;SDS011;10706;49.036;12.112;2023-08-31T13:04:56;4.88;;;1.80;;
21095;SDS011;10706;49.036;12.112;2023-08-31T13:07:21;7.88;;;2.08;;
21095;SDS011;10706;49.036;12.112;2023-08-31T13:09:47;6.05;;;1.60;;
21095;SDS011;10706;49.036;12.112;2023-08-31T13:12:13;6.45;;;1.77;;
21095;SDS011;10706;49.036;12.112;2023-08-31T13:14:38;10.18;;;2.17;;
21095;SDS011;10706;49.036;12.112;2023-08-31T13:17:04;5.18;;;1.55;;
21095;SDS011;10706;49.036;12.112;2023-08-31T13:19:31;4.25;;;1.40;;
21095;SDS011;10706;49.036;12.112;2023-08-31T13:21:57;3.92;;;1.73;;
21095;SDS011;10706;49.036;12.112;2023-08-31T13:24:22;6.20;;;1.73;;
21095;SDS011;10706;49.036;12.112;2023-08-31T13:26:48;6.28;;;1.77;;
21095;SDS011;10706;49.036;12.112;2023-08-31T13:29:14;8.23;;;1.80;;
21095;SDS011;10706;49.036;12.112;2023-08-31T13:31:41;6.00;;;1.73;;
21095;SDS011;10706;49.036;12.112;2023-08-31T13:34:07;5.07;;;1.70;;
21095;SDS011;10706;49.036;12.112;2023-08-31T13:36:33;4.10;;;1.48;;
21095;SDS011;10706;49.036;12.112;2023-08-31T13:38:59;5.82;;;1.60;;
21095;SDS011;10706;49.036;12.112;2023-08-31T13:41:25;5.25;;;1.88;;
21095;SDS011;10706;49.036;12.112;2023-08-31T13:43:50;7.25;;;2.17;;
21095;SDS011;10706;49.036;12.112;2023-08-31T13:46:17;6.03;;;1.90;;
21095;SDS011;10706;49.036;12.112;2023-08-31T13:48:43;5.00;;;1.92;;
21095;SDS011;10706;49.036;12.112;2023-08-31T13:51:09;7.00;;;1.70;;
21095;SDS011;10706;49.036;12.112;2023-08-31T13:53:34;4.78;;;1.70;;
21095;SDS011;10706;49.036;12.112;2023-08-31T13:56:00;5.35;;;1.70;;
21095;SDS011;10706;49.036;12.112;2023-08-31T13:58:26;4.78;;;2.00;;
21095;SDS011;10706;49.036;12.112;2023-08-31T14:00:52;9.55;;;2.08;;
21095;SDS011;10706;49.036;12.112;2023-08-31T14:03:18;5.38;;;1.65;;
21095;SDS011;10706;49.036;12.112;2023-08-31T14:05:47;6.75;;;1.65;;
21095;SDS011;10706;49.036;12.112;2023-08-31T14:08:14;6.85;;;2.10;;
21095;SDS011;10706;49.036;12.112;2023-08-31T14:10:40;7.18;;;2.03;;
21095;SDS011;10706;49.036;12.112;2023-08-31T14:13:06;6.95;;;2.17;;
21095;SDS011;10706;49.036;12.112;2023-08-31T14:15:32;4.65;;;2.00;;
21095;SDS011;10706;49.036;12.112;2023-08-31T14:17:58;7.20;;;1.75;;
21095;SDS011;10706;49.036;12.112;2023-08-31T14:20:24;8.60;;;2.15;;
21095;SDS011;10706;49.036;12.112;2023-08-31T14:22:49;8.98;;;1.60;;
21095;SDS011;10706;49.036;12.112;2023-08-31T14:25:15;5.32;;;1.83;;
21095;SDS011;10706;49.036;12.112;2023-08-31T14:27:42;5.20;;;1.98;;
21095;SDS011;10706;49.036;12.112;2023-08-31T14:30:08;7.60;;;2.05;;
21095;SDS011;10706;49.036;12.112;2023-08-31T14:32:34;4.45;;;1.70;;
21095;SDS011;10706;49.036;12.112;2023-08-31T14:35:00;8.75;;;2.00;;
21095;SDS011;10706;49.036;12.112;2023-08-31T14:37:26;8.15;;;2.05;;
21095;SDS011;10706;49.036;12.112;2023-08-31T14:39:52;5.30;;;1.98;;
21095;SDS011;10706;49.036;12.112;2023-08-31T14:42:17;4.40;;;2.13;;
21095;SDS011;10706;49.036;12.112;2023-08-31T14:44:46;5.40;;;2.20;;
21095;SDS011;10706;49.036;12.112;2023-08-31T14:47:13;7.45;;;2.00;;